Time;durP1;ratioP1;P1;durP2;ratioP2;P2;SDS_P1;SDS_P2;PMS_P1;PMS_P2;Temp;Humidity;BMP_temperature;BMP_pressure;BME280_temperature;BME280_humidity;BME280_pressure;Samples;Min_cycle;Max_cycle;Signal;HPM_P1;HPM_P2
2022/01/17 00:01:32;;;;;;;5.75;4.90;;;19.30;42.60;;;;;;5118324;27;20493;-60
2022/01/17 00:03:58;;;;;;;4.85;4.35;;;19.30;42.60;;;;;;5118086;28;20016;-60
2022/01/17 00:06:24;;;;;;;4.85;4.30;;;19.30;42.60;;;;;;5117362;28;20023;-60
2022/01/17 00:08:50;;;;;;;5.82;4.35;;;19.40;42.60;;;;;;5116165;28;20111;-59
2022/01/17 00:11:17;;;;;;;5.28;4.38;;;19.40;42.90;;;;;;5115777;28;20015;-61
2022/01/17 00:13:43;;;;;;;6.25;4.35;;;19.40;43.10;;;;;;5115195;28;20136;-60
2022/01/17 00:16:13;;;;;;;6.28;4.78;;;19.40;42.60;;;;;;5115124;28;20039;-59
2022/01/17 00:19:04;;;;;;;5.40;4.40;;;19.40;42.60;;;;;;5115319;28;20098;-59
2022/01/17 00:21:25;;;;;;;4.45;4.05;;;19.40;42.60;;;;;;5114884;28;20024;-59
2022/01/17 00:23:51;;;;;;;4.30;3.90;;;19.40;42.50;;;;;;5117301;28;20478;-60
2022/01/17 00:26:17;;;;;;;7.05;4.53;;;19.40;42.50;;;;;;5115632;28;20032;-61
2022/01/17 00:28:43;;;;;;;5.22;4.65;;;19.40;42.50;;;;;;5117065;27;20023;-60
2022/01/17 00:31:09;;;;;;;6.38;4.88;;;19.40;42.60;;;;;;5117575;28;20016;-59
2022/01/17 00:33:35;;;;;;;5.32;4.57;;;19.40;42.50;;;;;;5117484;28;20020;-59
2022/01/17 00:36:01;;;;;;;4.93;4.20;;;19.40;42.50;;;;;;5117345;28;20148;-59
2022/01/17 00:38:26;;;;;;;7.00;4.38;;;19.40;42.60;;;;;;5114368;28;20024;-59
2022/01/17 00:40:53;;;;;;;7.47;4.32;;;19.40;42.60;;;;;;5114659;28;20101;-60
2022/01/17 00:43:18;;;;;;;5.47;4.78;;;19.40;42.50;;;;;;5114581;28;20053;-59
2022/01/17 00:45:45;;;;;;;6.28;4.43;;;19.40;42.50;;;;;;5114488;28;20469;-60
2022/01/17 00:48:10;;;;;;;5.50;4.18;;;19.40;42.60;;;;;;5114638;28;20086;-60
2022/01/17 00:50:38;;;;;;;6.20;4.82;;;19.40;42.60;;;;;;5114156;28;20550;-60
2022/01/17 00:53:07;;;;;;;5.53;4.22;;;19.40;42.60;;;;;;5114203;28;20046;-59
2022/01/17 00:55:34;;;;;;;5.05;4.13;;;19.40;42.60;;;;;;5115112;28;20028;-59
2022/01/17 00:58:01;;;;;;;5.22;4.40;;;19.40;42.60;;;;;;5115317;28;20517;-60
2022/01/17 01:00:27;;;;;;;4.93;4.35;;;19.40;42.60;;;;;;5115770;28;20043;-60
2022/01/17 01:02:53;;;;;;;5.00;4.40;;;19.40;42.60;;;;;;5115014;28;20473;-60
2022/01/17 01:05:19;;;;;;;4.93;4.45;;;19.40;42.60;;;;;;5115141;28;20030;-59
2022/01/17 01:07:45;;;;;;;5.07;4.28;;;19.40;42.60;;;;;;5114965;28;20114;-58
2022/01/17 01:10:12;;;;;;;6.28;4.50;;;19.40;42.60;;;;;;5114486;28;20012;-57
2022/01/17 01:12:38;;;;;;;5.80;4.50;;;19.40;42.60;;;;;;5114805;28;20016;-58
2022/01/17 01:15:06;;;;;;;5.90;4.53;;;19.40;42.60;;;;;;5114788;28;20019;-58
2022/01/17 01:17:47;;;;;;;5.22;4.05;;;19.40;42.70;;;;;;5114621;28;20087;-58
2022/01/17 01:28:11;;;;;;;5.32;4.65;;;19.50;42.70;;;;;;5113456;28;20474;-57
2022/01/17 01:30:49;;;;;;;5.88;4.28;;;19.50;42.60;;;;;;5114152;28;20019;-57
2022/01/17 01:33:26;;;;;;;4.60;4.10;;;19.50;42.60;;;;;;5120537;28;20012;-57
2022/01/17 01:35:58;;;;;;;4.90;3.92;;;19.50;42.60;;;;;;5120587;28;20298;-57
2022/01/17 01:38:24;;;;;;;6.03;4.68;;;19.50;42.60;;;;;;5120731;27;20026;-57
2022/01/17 01:41:10;;;;;;;5.75;4.50;;;19.50;42.60;;;;;;5120752;28;20031;-58
2022/01/17 01:43:55;;;;;;;5.57;4.20;;;19.50;42.70;;;;;;5120502;28;20039;-57
2022/01/17 01:46:41;;;;;;;5.68;4.20;;;19.50;42.70;;;;;;5119562;28;20401;-57
2022/01/17 01:49:07;;;;;;;5.35;4.07;;;19.50;42.70;;;;;;5120566;27;20015;-56
2022/01/17 01:51:33;;;;;;;5.10;4.20;;;19.50;42.70;;;;;;5121277;27;20023;-57
2022/01/17 01:53:59;;;;;;;5.82;4.38;;;19.50;42.70;;;;;;5120007;27;20026;-57
2022/01/17 01:56:25;;;;;;;6.40;4.70;;;19.50;42.70;;;;;;5120209;27;20102;-57
2022/01/17 01:58:52;;;;;;;5.68;4.00;;;19.50;42.70;;;;;;5120244;27;20069;-57
2022/01/17 02:01:19;;;;;;;4.82;4.30;;;19.50;42.70;;;;;;5119964;27;20055;-57
2022/01/17 02:03:45;;;;;;;4.63;4.22;;;19.50;42.60;;;;;;5119915;27;20382;-58
2022/01/17 02:06:11;;;;;;;5.63;4.20;;;19.50;42.70;;;;;;5119786;27;20034;-57
2022/01/17 02:08:37;;;;;;;6.47;4.28;;;19.50;42.70;;;;;;5119858;27;20051;-58
2022/01/17 02:11:02;;;;;;;5.55;4.53;;;19.50;42.70;;;;;;5120915;27;20008;-59
2022/01/17 02:13:28;;;;;;;4.85;4.35;;;19.50;42.70;;;;;;5120559;27;20643;-58
2022/01/17 02:16:04;;;;;;;4.88;4.38;;;19.50;42.70;;;;;;5121071;27;20011;-57
2022/01/17 02:18:31;;;;;;;5.28;4.25;;;19.50;42.70;;;;;;5120659;28;20024;-57
2022/01/17 02:21:18;;;;;;;5.13;4.05;;;19.50;42.70;;;;;;5121090;27;20055;-57
2022/01/17 02:23:50;;;;;;;4.72;4.20;;;19.50;42.70;;;;;;5125822;27;20016;-57
2022/01/17 02:26:16;;;;;;;5.53;4.25;;;19.50;42.70;;;;;;5124846;27;20024;-57
2022/01/17 02:28:49;;;;;;;5.28;4.18;;;19.50;42.70;;;;;;5125536;27;20023;-56
2022/01/17 02:31:16;;;;;;;5.13;4.43;;;19.60;42.70;;;;;;5124603;27;20027;-57
2022/01/17 02:33:41;;;;;;;4.72;4.15;;;19.50;42.70;;;;;;5124592;27;20027;-57
2022/01/17 02:36:07;;;;;;;4.72;4.00;;;19.50;42.70;;;;;;5123927;27;20070;-56
2022/01/17 02:38:33;;;;;;;5.43;4.18;;;19.50;42.70;;;;;;5123018;28;20024;-57
2022/01/17 02:40:59;;;;;;;4.97;3.92;;;19.50;42.70;;;;;;5124131;27;20015;-56
2022/01/17 02:43:26;;;;;;;6.07;3.80;;;19.50;42.70;;;;;;5120919;27;20523;-57
2022/01/17 02:48:22;;;;;;;5.47;4.03;;;19.60;42.80;;;;;;5120606;28;20051;-58
2022/01/17 02:50:48;;;;;;;4.78;4.20;;;19.50;42.70;;;;;;5119605;28;20015;-58
2022/01/17 02:53:15;;;;;;;4.78;3.83;;;19.60;42.80;;;;;;5118212;28;20424;-57
2022/01/17 02:56:02;;;;;;;5.15;4.28;;;19.60;42.80;;;;;;5118304;28;20011;-57
2022/01/17 02:58:32;;;;;;;4.70;4.20;;;19.60;42.80;;;;;;5117363;28;20038;-58
2022/01/17 03:00:58;;;;;;;5.18;4.68;;;19.60;42.80;;;;;;5116737;28;20485;-58
2022/01/17 03:03:29;;;;;;;5.10;3.83;;;19.60;42.70;;;;;;5118161;28;20062;-58
2022/01/17 03:05:56;;;;;;;4.70;4.25;;;19.60;42.70;;;;;;5117698;28;20019;-58
2022/01/17 03:08:22;;;;;;;6.15;4.70;;;19.60;42.70;;;;;;5117457;28;20556;-58
2022/01/17 03:10:49;;;;;;;5.95;3.85;;;19.60;42.80;;;;;;5117574;28;20012;-57
2022/01/17 03:13:17;;;;;;;4.65;4.10;;;19.60;42.80;;;;;;5117228;28;20058;-58
2022/01/17 03:15:43;;;;;;;5.57;3.92;;;19.60;42.80;;;;;;5117480;28;20012;-58
2022/01/17 03:18:09;;;;;;;5.07;3.88;;;19.60;42.80;;;;;;5116867;28;20486;-58
2022/01/17 03:20:37;;;;;;;3.92;3.53;;;19.60;42.80;;;;;;5116449;28;20102;-58
2022/01/17 03:23:03;;;;;;;4.70;4.03;;;19.60;42.80;;;;;;5116360;28;20471;-57
2022/01/17 03:25:29;;;;;;;5.47;3.70;;;19.60;42.80;;;;;;5114571;28;20088;-58
2022/01/17 03:27:55;;;;;;;5.03;4.10;;;19.60;42.80;;;;;;5116646;28;20016;-57
2022/01/17 03:30:22;;;;;;;6.10;4.07;;;19.60;42.70;;;;;;5116641;28;20028;-58
2022/01/17 03:32:48;;;;;;;4.38;3.97;;;19.60;42.70;;;;;;5114778;28;20012;-58
2022/01/17 03:35:14;;;;;;;4.78;4.22;;;19.60;42.80;;;;;;5115375;28;20023;-57
2022/01/17 03:37:40;;;;;;;5.13;3.67;;;19.60;42.80;;;;;;5115609;28;20011;-58
2022/01/17 03:40:07;;;;;;;5.53;4.50;;;19.60;42.70;;;;;;5114028;28;20436;-58
2022/01/17 03:42:33;;;;;;;5.35;4.30;;;19.60;42.80;;;;;;5115236;28;20107;-59
2022/01/17 03:45:03;;;;;;;5.20;4.28;;;19.60;42.80;;;;;;5114981;28;20111;-57
2022/01/17 03:47:29;;;;;;;4.80;3.72;;;19.60;42.80;;;;;;5115024;28;20069;-58
2022/01/17 03:49:54;;;;;;;5.70;4.18;;;19.60;42.70;;;;;;5115364;28;20062;-58
2022/01/17 03:52:21;;;;;;;4.82;3.72;;;19.60;42.80;;;;;;5115444;28;20378;-58
2022/01/17 03:54:49;;;;;;;5.05;3.88;;;19.70;42.80;;;;;;5115871;28;20114;-58
2022/01/17 03:57:15;;;;;;;5.50;3.95;;;19.70;42.80;;;;;;5116484;28;20015;-58
2022/01/17 03:59:41;;;;;;;5.45;4.25;;;19.70;42.80;;;;;;5116355;28;20024;-58
2022/01/17 04:02:07;;;;;;;4.57;3.95;;;19.70;42.80;;;;;;5115627;28;20160;-58
2022/01/17 04:04:33;;;;;;;4.63;4.13;;;19.70;42.80;;;;;;5116900;28;20020;-58
2022/01/17 04:07:01;;;;;;;4.47;3.88;;;19.60;42.80;;;;;;5116036;28;20043;-58
2022/01/17 04:09:27;;;;;;;7.28;4.20;;;19.70;42.80;;;;;;5114998;28;20061;-58
2022/01/17 04:11:54;;;;;;;5.20;4.22;;;19.70;42.70;;;;;;5114732;28;20039;-58
2022/01/17 04:14:20;;;;;;;4.10;3.70;;;19.70;42.80;;;;;;5114539;28;20019;-58
2022/01/17 04:16:47;;;;;;;4.68;3.88;;;19.70;42.80;;;;;;5114791;28;20015;-58
2022/01/17 04:19:13;;;;;;;5.07;4.20;;;19.70;42.70;;;;;;5114442;28;20386;-59
2022/01/17 04:21:39;;;;;;;4.80;3.88;;;19.80;42.60;;;;;;5114451;28;20466;-59
2022/01/17 04:24:06;;;;;;;6.32;4.13;;;19.80;42.50;;;;;;5114514;28;20542;-58
2022/01/17 04:26:33;;;;;;;4.97;3.72;;;19.90;42.50;;;;;;5114725;28;20019;-58
2022/01/17 04:28:59;;;;;;;4.45;3.83;;;19.90;42.40;;;;;;5113292;28;20062;-58
2022/01/17 04:31:25;;;;;;;4.75;4.00;;;20.00;42.30;;;;;;5114146;27;20052;-59
2022/01/17 04:33:52;;;;;;;4.50;4.10;;;20.00;42.20;;;;;;5114093;28;20485;-58
2022/01/17 04:36:18;;;;;;;4.97;3.65;;;20.10;42.10;;;;;;5114470;28;20125;-58
2022/01/17 04:38:44;;;;;;;4.50;3.83;;;20.20;42.00;;;;;;5113893;28;20031;-58
2022/01/17 04:41:16;;;;;;;4.40;4.00;;;20.20;41.80;;;;;;5115092;28;20012;-58
2022/01/17 04:46:09;;;;;;;4.63;4.13;;;20.40;41.70;;;;;;5114483;28;20498;-58
2022/01/17 04:48:36;;;;;;;5.03;4.07;;;20.40;41.60;;;;;;5114563;28;20015;-57
2022/01/17 04:51:02;;;;;;;4.72;4.10;;;20.50;41.50;;;;;;5114986;28;20012;-57
2022/01/17 04:53:28;;;;;;;4.80;4.13;;;20.50;41.40;;;;;;5115621;28;20012;-57
2022/01/17 04:55:55;;;;;;;6.43;4.75;;;20.60;41.30;;;;;;5116029;28;20049;-58
2022/01/17 04:58:20;;;;;;;5.45;3.58;;;20.60;41.20;;;;;;5116248;28;20020;-58
2022/01/17 05:00:47;;;;;;;4.35;3.90;;;20.70;41.10;;;;;;5116132;28;20019;-57
2022/01/17 05:03:21;;;;;;;4.85;4.07;;;20.70;41.00;;;;;;5116532;28;20024;-57
2022/01/17 05:05:47;;;;;;;4.93;4.00;;;20.80;40.90;;;;;;5115173;28;20022;-56
2022/01/17 05:08:13;;;;;;;4.30;3.80;;;20.90;40.80;;;;;;5113481;28;20047;-60
2022/01/17 05:10:39;;;;;;;4.78;3.60;;;20.90;40.70;;;;;;5112335;28;20012;-59
2022/01/17 05:13:05;;;;;;;5.15;4.18;;;21.00;40.70;;;;;;5113414;28;20101;-59
2022/01/17 05:15:37;;;;;;;4.07;3.63;;;21.00;40.50;;;;;;5113723;28;20065;-59
2022/01/17 05:20:32;;;;;;;4.72;3.67;;;21.10;40.50;;;;;;5113375;28;20027;-59
2022/01/17 05:22:59;;;;;;;4.93;3.85;;;21.20;40.40;;;;;;5115158;28;20023;-59
2022/01/17 05:25:25;;;;;;;4.68;3.78;;;21.10;40.40;;;;;;5115384;28;20022;-58
2022/01/17 05:27:51;;;;;;;4.53;4.10;;;21.20;40.30;;;;;;5116194;28;20012;-59
2022/01/17 05:30:18;;;;;;;5.15;3.40;;;21.20;40.30;;;;;;5115949;28;20012;-58
2022/01/17 05:32:45;;;;;;;5.28;3.70;;;21.20;40.40;;;;;;5115539;28;20039;-58
2022/01/17 05:35:11;;;;;;;4.32;3.88;;;21.20;40.40;;;;;;5114624;28;20030;-58
2022/01/17 05:37:37;;;;;;;5.05;4.10;;;21.20;40.40;;;;;;5114751;28;20099;-59
2022/01/17 05:40:06;;;;;;;5.50;3.80;;;21.20;40.30;;;;;;5116460;28;20039;-59
2022/01/17 05:42:32;;;;;;;4.10;3.58;;;21.20;40.30;;;;;;5116592;28;20027;-59
2022/01/17 05:44:58;;;;;;;4.35;3.95;;;21.20;40.40;;;;;;5116515;28;20024;-58
2022/01/17 05:47:24;;;;;;;5.05;3.83;;;21.20;40.40;;;;;;5115622;28;20028;-59
2022/01/17 05:49:51;;;;;;;4.40;3.80;;;21.20;40.50;;;;;;5116459;28;20012;-58
2022/01/17 05:52:17;;;;;;;4.10;3.70;;;21.20;40.50;;;;;;5115592;28;20019;-58
2022/01/17 05:54:43;;;;;;;4.85;4.00;;;21.10;40.60;;;;;;5114235;28;20485;-57
2022/01/17 05:57:09;;;;;;;4.22;3.83;;;21.20;40.70;;;;;;5114442;28;20031;-58
2022/01/17 05:59:36;;;;;;;5.88;3.92;;;21.10;40.70;;;;;;5115621;28;20032;-57
2022/01/17 06:02:02;;;;;;;3.90;3.50;;;21.10;40.80;;;;;;5114761;28;20051;-58
2022/01/17 06:04:28;;;;;;;4.25;3.78;;;21.10;40.90;;;;;;5114773;28;20035;-57
2022/01/17 06:06:55;;;;;;;6.90;4.20;;;21.10;40.90;;;;;;5114780;28;20470;-59
2022/01/17 06:09:22;;;;;;;4.53;3.67;;;21.10;40.90;;;;;;5114519;28;20028;-57
2022/01/17 06:11:48;;;;;;;4.45;3.90;;;21.10;40.90;;;;;;5112809;28;20012;-57
2022/01/17 06:14:15;;;;;;;4.20;3.70;;;21.10;40.90;;;;;;5114218;28;20041;-57
2022/01/17 06:16:41;;;;;;;4.38;3.97;;;21.10;40.90;;;;;;5112852;28;20502;-57
2022/01/17 06:19:07;;;;;;;3.80;3.40;;;21.10;40.90;;;;;;5118052;28;20076;-57
2022/01/17 06:21:33;;;;;;;4.43;3.97;;;21.20;40.90;;;;;;5116951;28;20039;-56
2022/01/17 06:24:01;;;;;;;3.55;3.20;;;21.20;40.90;;;;;;5118240;28;20024;-57
2022/01/17 06:26:27;;;;;;;4.07;3.67;;;21.20;40.90;;;;;;5116969;28;20034;-56
2022/01/17 06:28:54;;;;;;;4.03;3.63;;;21.20;40.80;;;;;;5116848;28;20019;-57
2022/01/17 06:31:19;;;;;;;4.85;3.60;;;21.20;40.90;;;;;;5118317;28;20012;-57
2022/01/17 06:33:45;;;;;;;6.18;3.88;;;21.20;40.90;;;;;;5117971;28;20485;-57
2022/01/17 06:36:11;;;;;;;7.15;4.28;;;21.10;40.90;;;;;;5117663;28;20450;-57
2022/01/17 06:38:37;;;;;;;4.70;3.85;;;21.20;41.40;;;;;;5116400;28;20069;-57
2022/01/17 06:41:03;;;;;;;4.25;3.85;;;21.20;40.80;;;;;;5116756;28;20063;-57
2022/01/17 06:43:29;;;;;;;5.57;3.60;;;21.20;40.80;;;;;;5117566;28;20043;-57
2022/01/17 06:45:55;;;;;;;4.13;3.67;;;21.20;40.90;;;;;;5116138;28;20466;-57
2022/01/17 06:48:21;;;;;;;4.55;4.00;;;21.20;40.90;;;;;;5118098;28;20023;-57
2022/01/17 06:50:47;;;;;;;3.95;3.50;;;21.20;41.00;;;;;;5116877;28;20007;-57
2022/01/17 06:53:13;;;;;;;3.40;3.10;;;21.20;40.90;;;;;;5117067;28;20042;-58
2022/01/17 06:55:40;;;;;;;5.00;4.28;;;21.20;41.50;;;;;;5117270;28;20462;-58
2022/01/17 06:58:07;;;;;;;9.00;7.38;;;21.10;41.00;;;;;;5117649;28;20023;-57
2022/01/17 07:00:33;;;;;;;17.63;13.70;;;19.70;42.10;;;;;;5082161;28;20020;-59
2022/01/17 07:02:59;;;;;;;15.90;13.02;;;17.00;46.10;;;;;;5117257;28;20069;-58
2022/01/17 07:05:25;;;;;;;18.08;14.50;;;15.60;50.90;;;;;;5115544;28;20020;-60
2022/01/17 07:07:51;;;;;;;20.30;14.98;;;14.80;53.40;;;;;;5115388;28;20374;-57
2022/01/17 07:10:17;;;;;;;23.98;16.25;;;14.40;55.30;;;;;;5115494;28;20056;-57
2022/01/17 07:12:46;;;;;;;19.58;15.82;;;14.00;56.10;;;;;;5116120;28;20008;-56
2022/01/17 07:15:13;;;;;;;24.95;16.23;;;13.80;57.00;;;;;;5115733;28;20092;-59
2022/01/17 07:17:39;;;;;;;21.45;14.57;;;13.60;57.80;;;;;;5114092;28;20011;-57
2022/01/17 07:20:06;;;;;;;22.30;15.38;;;14.00;57.10;;;;;;5114280;28;20103;-57
2022/01/17 07:22:32;;;;;;;21.80;14.38;;;14.10;56.40;;;;;;5113771;27;20022;-58
2022/01/17 07:25:00;;;;;;;24.80;14.88;;;13.50;58.40;;;;;;5114053;28;20024;-56
2022/01/17 07:27:25;;;;;;;19.42;13.32;;;13.60;58.70;;;;;;5114487;28;20049;-56
2022/01/17 07:29:54;;;;;;;19.23;13.43;;;13.70;58.90;;;;;;5113926;28;20015;-59
2022/01/17 07:32:20;;;;;;;19.05;13.27;;;13.00;60.00;;;;;;5113968;28;20016;-58
2022/01/17 07:34:49;;;;;;;20.80;13.40;;;13.20;59.80;;;;;;5113587;28;20194;-60
2022/01/17 07:37:16;;;;;;;22.67;13.80;;;13.30;59.30;;;;;;5114661;28;20023;-58
2022/01/17 07:39:43;;;;;;;20.67;12.93;;;13.60;58.10;;;;;;5114736;28;20644;-59
2022/01/17 07:42:09;;;;;;;19.10;13.10;;;13.50;58.80;;;;;;5114190;28;20055;-58
2022/01/17 07:44:40;;;;;;;20.88;12.95;;;13.50;58.30;;;;;;5114314;28;20099;-57
2022/01/17 07:47:06;;;;;;;19.13;12.70;;;13.50;59.00;;;;;;5113362;28;20016;-58
2022/01/17 07:49:33;;;;;;;20.40;12.50;;;13.30;58.30;;;;;;5114497;28;20422;-57
2022/01/17 07:52:04;;;;;;;19.52;12.00;;;13.30;59.10;;;;;;5112981;28;20046;-57
2022/01/17 07:54:33;;;;;;;22.17;11.40;;;13.50;58.90;;;;;;5112552;28;20007;-55
2022/01/17 07:57:06;;;;;;;21.35;11.18;;;13.20;58.40;;;;;;5114326;28;20069;-54
2022/01/17 07:59:35;;;;;;;18.52;9.70;;;13.00;58.80;;;;;;5113852;28;20365;-53
2022/01/17 08:02:01;;;;;;;21.92;10.10;;;12.70;58.90;;;;;;5113675;27;20472;-55
2022/01/17 08:04:27;;;;;;;16.13;8.77;;;12.60;59.40;;;;;;5113742;28;20072;-54
2022/01/17 08:06:52;;;;;;;23.50;9.70;;;12.60;59.90;;;;;;5114282;28;20043;-55
2022/01/17 08:09:21;;;;;;;18.13;8.13;;;13.00;58.60;;;;;;5113876;28;20500;-56
2022/01/17 08:11:49;;;;;;;18.23;8.20;;;12.90;58.60;;;;;;5113973;27;20027;-55
2022/01/17 08:14:15;;;;;;;18.35;7.47;;;13.80;57.80;;;;;;5111738;28;20047;-56
2022/01/17 08:16:43;;;;;;;18.17;8.45;;;14.10;55.60;;;;;;5113457;28;20042;-58
2022/01/17 08:19:09;;;;;;;20.92;9.40;;;14.30;54.30;;;;;;5095652;28;20026;-57
2022/01/17 08:21:36;;;;;;;26.08;9.70;;;13.20;56.50;;;;;;5112435;28;20498;-58
2022/01/17 08:24:02;;;;;;;16.75;9.18;;;13.10;57.40;;;;;;5112424;28;20041;-58
2022/01/17 08:26:28;;;;;;;15.07;8.88;;;13.10;57.90;;;;;;5094507;28;20451;-59
2022/01/17 08:28:54;;;;;;;16.13;8.65;;;12.70;58.90;;;;;;5113190;28;20043;-60
2022/01/17 08:31:20;;;;;;;23.85;11.38;;;12.50;60.00;;;;;;5113062;28;20041;-58
2022/01/17 08:33:46;;;;;;;21.33;10.65;;;12.50;60.00;;;;;;5113728;28;20068;-66
2022/01/17 08:36:13;;;;;;;24.33;11.23;;;12.40;59.70;;;;;;5111838;28;20027;-60
2022/01/17 08:38:39;;;;;;;23.50;11.00;;;12.40;59.50;;;;;;5111844;28;20020;-58
2022/01/17 08:41:05;;;;;;;24.38;10.57;;;12.70;59.40;;;;;;5110509;28;20008;-60
2022/01/17 08:43:31;;;;;;;19.85;10.75;;;12.40;59.90;;;;;;5112879;28;20023;-58
2022/01/17 08:45:57;;;;;;;18.55;9.63;;;12.40;59.70;;;;;;5113459;28;20072;-59
2022/01/17 08:48:23;;;;;;;21.35;10.38;;;12.60;59.40;;;;;;5112446;28;21092;-61
2022/01/17 08:50:50;;;;;;;23.70;10.82;;;12.30;59.80;;;;;;5111532;28;20011;-58
2022/01/17 08:53:16;;;;;;;21.83;9.23;;;12.60;59.30;;;;;;5112811;28;20083;-58
2022/01/17 08:55:43;;;;;;;19.33;9.02;;;12.60;59.50;;;;;;5111665;28;20035;-60
2022/01/17 08:58:09;;;;;;;19.27;9.07;;;12.90;58.50;;;;;;5112850;28;20057;-60
2022/01/17 09:00:36;;;;;;;21.70;9.82;;;12.80;58.50;;;;;;5112289;28;20095;-58
2022/01/17 09:03:03;;;;;;;18.92;8.75;;;12.80;58.50;;;;;;5112265;28;20041;-60
2022/01/17 09:05:30;;;;;;;20.02;9.57;;;12.90;57.90;;;;;;5111661;28;20015;-59
2022/01/17 09:07:56;;;;;;;20.20;8.82;;;12.90;58.20;;;;;;5112111;28;20027;-59
2022/01/17 09:10:21;;;;;;;22.60;9.18;;;13.00;57.30;;;;;;5112299;28;20019;-59
2022/01/17 09:12:47;;;;;;;25.40;8.98;;;12.50;58.50;;;;;;5113879;27;20458;-61
2022/01/17 09:15:13;;;;;;;17.77;9.07;;;12.50;58.80;;;;;;5111066;28;20172;-58
2022/01/17 09:17:39;;;;;;;22.38;9.60;;;12.30;59.40;;;;;;5113115;28;20023;-59
2022/01/17 09:20:06;;;;;;;21.15;9.23;;;12.30;59.70;;;;;;5112197;28;20077;-58
2022/01/17 09:22:32;;;;;;;25.02;9.07;;;12.30;60.00;;;;;;5111692;28;20020;-61
2022/01/17 09:24:59;;;;;;;28.00;9.85;;;11.80;61.40;;;;;;5111309;28;20123;-59
2022/01/17 09:27:25;;;;;;;17.58;8.70;;;11.80;62.10;;;;;;5112509;28;20111;-59
2022/01/17 09:29:52;;;;;;;25.83;9.40;;;12.40;61.00;;;;;;5112263;28;20016;-59
2022/01/17 09:32:20;;;;;;;19.02;9.38;;;12.60;59.70;;;;;;5111108;28;20024;-58
2022/01/17 09:34:46;;;;;;;23.98;9.68;;;12.50;59.80;;;;;;5111808;28;20454;-59
2022/01/17 09:37:13;;;;;;;24.95;10.32;;;12.00;60.60;;;;;;5110612;28;20012;-58
2022/01/17 09:39:38;;;;;;;21.58;8.68;;;12.30;60.80;;;;;;5112385;28;20016;-58
2022/01/17 09:42:06;;;;;;;22.38;10.05;;;12.10;60.70;;;;;;5110830;28;20023;-59
2022/01/17 09:44:41;;;;;;;24.10;9.73;;;12.00;60.70;;;;;;5112024;28;20016;-58
2022/01/17 09:47:07;;;;;;;19.10;8.43;;;11.90;61.50;;;;;;5110273;28;20058;-59
2022/01/17 09:49:42;;;;;;;21.42;9.13;;;11.90;62.10;;;;;;5110422;28;20147;-58
2022/01/17 09:55:14;;;;;;;24.40;9.05;;;11.20;62.90;;;;;;5115634;28;20571;-58
2022/01/17 09:57:45;;;;;;;24.88;8.68;;;11.00;63.70;;;;;;5116057;28;20067;-59
2022/01/17 10:00:12;;;;;;;24.25;8.77;;;11.30;62.60;;;;;;5115033;28;20072;-58
2022/01/17 10:02:42;;;;;;;22.27;7.93;;;11.50;62.10;;;;;;5115158;28;20015;-58
2022/01/17 10:05:08;;;;;;;21.90;8.48;;;11.80;61.60;;;;;;5097396;28;20050;-58
2022/01/17 10:07:53;;;;;;;20.08;7.60;;;11.80;61.30;;;;;;5115638;28;20092;-60
2022/01/17 10:10:36;;;;;;;18.10;7.63;;;12.40;60.60;;;;;;5116346;28;20067;-59
2022/01/17 10:13:14;;;;;;;19.48;7.82;;;12.50;59.40;;;;;;5115549;28;20050;-59
2022/01/17 10:15:54;;;;;;;22.33;7.75;;;12.20;59.50;;;;;;5115355;28;20072;-59
2022/01/17 10:18:28;;;;;;;19.50;7.20;;;12.40;59.60;;;;;;5114916;28;20011;-60
2022/01/17 10:20:57;;;;;;;17.02;7.00;;;12.90;58.70;;;;;;5115569;28;20092;-59
2022/01/17 10:23:42;;;;;;;22.13;8.00;;;12.90;58.40;;;;;;5114029;28;20016;-60
2022/01/17 10:26:33;;;;;;;21.30;7.80;;;12.30;59.10;;;;;;5115346;28;20076;-58
2022/01/17 10:30:12;;;;;;;21.27;8.10;;;12.00;60.30;;;;;;5115571;27;20011;-62
2022/01/17 10:37:14;;;;;;;21.42;6.78;;;12.40;60.20;;;;;;5114810;28;20026;-59
2022/01/17 10:40:00;;;;;;;19.55;6.85;;;11.90;61.10;;;;;;5113990;28;20020;-58
2022/01/17 10:42:34;;;;;;;19.30;6.75;;;12.30;60.80;;;;;;5113927;28;20019;-58
2022/01/17 10:45:07;;;;;;;19.80;6.63;;;12.10;60.40;;;;;;5113859;28;20035;-59
2022/01/17 10:47:39;;;;;;;25.35;6.50;;;12.10;60.30;;;;;;5115428;28;20050;-58
2022/01/17 10:50:08;;;;;;;24.90;6.10;;;11.70;61.40;;;;;;5115305;28;20035;-58
2022/01/17 10:52:35;;;;;;;19.98;5.57;;;11.70;62.10;;;;;;5113840;28;20023;-58
2022/01/17 10:55:08;;;;;;;17.25;5.50;;;11.90;61.70;;;;;;5113676;28;20027;-57
2022/01/17 10:57:40;;;;;;;18.65;6.05;;;12.00;61.30;;;;;;5114557;28;20012;-57
2022/01/17 11:00:11;;;;;;;16.05;4.95;;;12.60;60.40;;;;;;5115296;28;20008;-58
2022/01/17 11:02:38;;;;;;;17.65;5.13;;;13.90;56.90;;;;;;5115712;28;20012;-58
2022/01/17 11:05:07;;;;;;;13.90;4.32;;;14.20;53.60;;;;;;5114561;28;20486;-59
2022/01/17 11:07:44;;;;;;;24.02;5.82;;;14.30;54.80;;;;;;5115695;28;20095;-57
2022/01/17 11:10:25;;;;;;;16.00;4.60;;;15.10;52.90;;;;;;5114033;28;20479;-59
2022/01/17 11:12:52;;;;;;;12.77;3.72;;;15.90;50.70;;;;;;5115507;28;20015;-59
2022/01/17 11:15:18;;;;;;;19.75;5.20;;;16.60;48.70;;;;;;5115079;28;20496;-58
2022/01/17 11:17:56;;;;;;;13.82;4.45;;;17.00;47.30;;;;;;5115136;28;20032;-59
2022/01/17 11:20:26;;;;;;;16.25;4.68;;;16.80;47.20;;;;;;5114971;28;20394;-58
2022/01/17 11:22:57;;;;;;;17.15;4.63;;;16.90;47.00;;;;;;5114984;28;20026;-59
2022/01/17 11:25:28;;;;;;;16.42;4.40;;;16.60;47.50;;;;;;5114773;28;20046;-60
2022/01/17 11:27:54;;;;;;;14.45;4.22;;;16.70;47.30;;;;;;5114666;28;20106;-58
2022/01/17 11:30:19;;;;;;;14.00;4.18;;;17.10;47.10;;;;;;5115089;28;20027;-61
2022/01/17 11:32:46;;;;;;;16.23;4.15;;;17.50;45.80;;;;;;5114513;28;20000;-61
2022/01/17 11:35:13;;;;;;;10.57;3.78;;;17.90;44.90;;;;;;5113941;28;20011;-60
2022/01/17 11:37:42;;;;;;;12.32;3.97;;;18.20;44.10;;;;;;5115300;28;20012;-61
2022/01/17 11:40:09;;;;;;;13.00;3.67;;;18.50;43.60;;;;;;5113841;28;20108;-62
2022/01/17 11:42:48;;;;;;;11.48;3.75;;;18.70;42.90;;;;;;5114467;27;20020;-58
2022/01/17 11:45:25;;;;;;;11.93;3.60;;;18.90;42.60;;;;;;5112581;28;20029;-58
2022/01/17 11:47:55;;;;;;;17.17;4.72;;;19.00;42.00;;;;;;5113521;28;20537;-58
2022/01/17 11:50:37;;;;;;;22.42;4.80;;;18.40;42.90;;;;;;5114477;28;20018;-58
2022/01/17 11:53:12;;;;;;;13.45;4.45;;;17.70;45.40;;;;;;5114256;28;20020;-56
2022/01/17 11:55:43;;;;;;;16.42;4.88;;;17.60;46.10;;;;;;5113225;28;20470;-56
2022/01/17 11:58:26;;;;;;;17.95;5.50;;;17.40;46.40;;;;;;5114692;28;20092;-58
2022/01/17 12:00:57;;;;;;;13.77;4.35;;;17.30;46.60;;;;;;5114734;28;20019;-57
2022/01/17 12:03:45;;;;;;;59.85;9.95;;;16.70;48.10;;;;;;5114621;28;20020;-57
2022/01/17 12:06:28;;;;;;;23.02;5.28;;;16.80;48.00;;;;;;5107005;28;20039;-56
2022/01/17 12:09:16;;;;;;;16.80;5.20;;;16.90;48.10;;;;;;5113779;28;20043;-56
2022/01/17 12:11:44;;;;;;;18.10;5.30;;;16.70;47.90;;;;;;5113376;28;20018;-55
2022/01/17 12:14:21;;;;;;;17.73;5.07;;;16.70;48.20;;;;;;5113721;28;20023;-54
2022/01/17 12:16:47;;;;;;;16.23;4.82;;;16.80;47.80;;;;;;5113313;28;20019;-56
2022/01/17 12:19:13;;;;;;;20.63;5.15;;;16.90;48.00;;;;;;5112170;28;20085;-56
2022/01/17 12:21:44;;;;;;;19.25;5.18;;;17.10;47.70;;;;;;5112458;28;20080;-57
2022/01/17 12:24:16;;;;;;;18.35;5.15;;;17.50;46.90;;;;;;5113748;28;20125;-59
2022/01/17 12:26:42;;;;;;;16.40;4.70;;;17.60;46.40;;;;;;5113159;28;20027;-60
2022/01/17 12:29:08;;;;;;;16.20;4.90;;;17.80;46.00;;;;;;5113478;28;20035;-57
2022/01/17 12:31:47;;;;;;;17.92;4.88;;;18.00;45.60;;;;;;5111881;28;20035;-59
2022/01/17 12:34:24;;;;;;;14.40;4.95;;;17.90;45.70;;;;;;5111807;28;20065;-55
2022/01/17 12:36:52;;;;;;;15.80;4.60;;;17.60;46.10;;;;;;5112594;28;20096;-57
2022/01/17 12:39:28;;;;;;;34.00;6.95;;;17.60;46.40;;;;;;5111395;28;20117;-58
2022/01/17 12:42:00;;;;;;;20.55;5.13;;;17.50;46.30;;;;;;5111407;28;20030;-58
2022/01/17 12:44:39;;;;;;;19.25;4.68;;;17.70;46.20;;;;;;5112087;28;20055;-58
2022/01/17 12:47:17;;;;;;;;;;;;;;;;;;;;;
2022/01/17 12:49:48;;;;;;;16.05;4.38;;;18.10;45.40;;;;;;5112852;28;20032;-59
2022/01/17 12:52:16;;;;;;;18.60;4.82;;;18.30;45.10;;;;;;5113750;28;20482;-60
2022/01/17 12:54:41;;;;;;;12.77;3.75;;;18.50;45.00;;;;;;5111991;28;20012;-59
2022/01/17 12:57:07;;;;;;;15.02;4.40;;;18.60;44.60;;;;;;5094510;28;20095;-60
2022/01/17 12:59:33;;;;;;;17.45;3.97;;;18.70;43.90;;;;;;5111729;28;20011;-60
2022/01/17 13:02:01;;;;;;;14.30;4.18;;;18.90;43.70;;;;;;5113024;28;20069;-58
2022/01/17 13:04:29;;;;;;;23.45;5.43;;;19.00;43.60;;;;;;5112975;28;20067;-60
2022/01/17 13:06:54;;;;;;;27.55;4.65;;;19.20;43.10;;;;;;5113022;28;20028;-61
2022/01/17 13:09:24;;;;;;;21.67;4.95;;;19.30;43.60;;;;;;5112763;28;20067;-58
2022/01/17 13:11:52;;;;;;;19.15;4.43;;;19.40;43.10;;;;;;5113143;28;20018;-61
2022/01/17 13:14:20;;;;;;;16.95;4.25;;;19.40;42.80;;;;;;5112007;28;20036;-58